KHON/HON METAR and TAF weather

Enter ICAO airport designator
Station Type Date Time Source
KHON METAR 2020/01/28 20:55 UTC NOAA

KHON 282055Z AUTO 15004KT 10SM OVC006 M02/M03 A3005 RMK AO2 SLP196 T10221033 56016


Station Type Date Time Source
KHON Decoded METAR 2020/01/28 20:55 UTC NOAA

HURON REGIONAL AIRPORT, SD, United States (KHON) 44-23N 098-14W 390M
Jan 28, 2020 - 03:55 PM EST / 2020.01.28 2055 UTC
Wind: from the SSE (150 degrees) at 5 MPH (4 KT):0
Visibility: 10 mile(s):0
Sky conditions: overcast
Temperature: 28.0 F (-2.2 C)
Windchill: 23 F (-5 C):1
Dew Point: 26.1 F (-3.3 C)
Relative Humidity: 92%
Pressure (altimeter): 30.05 in. Hg (1017 hPa)
Pressure tendency: 0.05 inches (1.6 hPa) lower than three hours ago
ob: KHON 282055Z AUTO 15004KT 10SM OVC006 M02/M03 A3005 RMK AO2 SLP196 T10221033 56016
cycle: 21

Station Type Date Time Source
KHON TAF 2020/01/28 18:22 UTC NOAA

TAF KHON 281720Z 2818/2918 17008KT 4SM BR OVC004
FM281900 15007KT 1 1/2SM -SN OVC006
FM282300 14006KT P6SM OVC009
FM290200 15005KT 4SM BR OVC006

Example: see airport list